首页
METAR-TAF:

METAR-TAF

机场 :

聖荷西, 哥斯達黎加

纬度: 09-57N, 经度: 084-09W, 海拔: 994米

当前天气观测

该预报发布于1小时和21分钟前的00:00 UTC
风速1节,风向西北
温度 22°C
湿度 94%
气压 1017 hPa
能见度10公里或以上
多云层高于2000英尺

METAR: MRPV 250000Z 32001KT 9999 BKN020 22/21 A3004 RERA NOSIG

时间: 19:21 (01:21 UTC)

预报

该预报发布于2小时和4分钟前的23:17 UTC
预报有效从25日的 00点(UTC)到 25日的 24点(UTC)
风速7节,风向西
能见度10公里或以上
少量云层高于3500英尺
短暂存在
从 25日的 00点(UTC)到 25日的 04点(UTC)
能見度: 5000
多云层高于1000英尺
轻雾
成为
从 25日的 05点(UTC)到 25日的 06点(UTC)
风速7节,风向东转东南
成为
从 25日的 15点(UTC)到 25日的 18点(UTC)
风速7节,风向西转西北
短暂存在
从 25日的 20点(UTC)到 25日的 24点(UTC)
散云层高于1500英尺, 积雨云.
雷暴, 雨,

TAF: MRPV 242317Z 2500/2524 28007KT 9999 FEW035 TX29/2519Z TN19/2510Z TEMPO 2500/2504 5000 BR BKN010 BECMG 2505/2506 11007KT BECMG 2515/2518 29007KT TEMPO 2520/2524 TSRA SCT015CB

超过4000个机场的气象观测和天气预报(METAR&TAF报告)。

可查询的气象台以黄色和红色小点在地图上表示。

将鼠标移到小点上方,可查看气象台名称。

然后点击查看天气观测和预报。

如需切换地图:点击带黑十字的绿色按钮放大地图;点击带横线的绿色按钮缩小地图;或者点击绿色箭头查看邻近地区的地图。


METAR-TAF: